sensor_id;sensor_type;location;lat;lon;timestamp;pressure;altitude;pressure_sealevel;temperature;humidity
79463;BME280;68931;47.286;18.756;2023-10-13T00:00:03;100854.34;;;13.11;92.44
79463;BME280;68931;47.286;18.756;2023-10-13T00:00:55;100855.41;;;13.08;92.15
79463;BME280;68931;47.286;18.756;2023-10-13T00:01:29;100841.88;;;13.00;91.88
79463;BME280;68931;47.286;18.756;2023-10-13T00:02:03;100852.00;;;13.06;91.93
79463;BME280;68931;47.286;18.756;2023-10-13T00:02:37;100848.06;;;12.99;92.30
79463;BME280;68931;47.286;18.756;2023-10-13T00:03:16;100847.13;;;13.00;92.31
79463;BME280;68931;47.286;18.756;2023-10-13T00:03:51;100831.91;;;12.91;92.42
79463;BME280;68931;47.286;18.756;2023-10-13T00:04:28;100856.63;;;13.03;92.44
79463;BME280;68931;47.286;18.756;2023-10-13T00:05:00;100857.47;;;13.03;92.25
79463;BME280;68931;47.286;18.756;2023-10-13T00:05:33;100853.03;;;13.04;92.10
79463;BME280;68931;47.286;18.756;2023-10-13T00:06:06;100832.75;;;12.92;92.22
79463;BME280;68931;47.286;18.756;2023-10-13T00:06:38;100859.25;;;13.03;92.03
79463;BME280;68931;47.286;18.756;2023-10-13T00:07:10;100837.16;;;12.91;91.95
79463;BME280;68931;47.286;18.756;2023-10-13T00:07:43;100831.22;;;12.88;92.34
79463;BME280;68931;47.286;18.756;2023-10-13T00:08:15;100842.53;;;12.90;91.80
79463;BME280;68931;47.286;18.756;2023-10-13T00:08:49;100829.25;;;12.77;91.71
79463;BME280;68931;47.286;18.756;2023-10-13T00:09:22;100865.94;;;12.94;91.89
79463;BME280;68931;47.286;18.756;2023-10-13T00:10:04;100854.00;;;12.89;91.71
79463;BME280;68931;47.286;18.756;2023-10-13T00:10:46;100853.59;;;12.95;91.70
79463;BME280;68931;47.286;18.756;2023-10-13T00:11:19;100839.44;;;12.83;91.54
79463;BME280;68931;47.286;18.756;2023-10-13T00:11:53;100849.66;;;12.88;91.66
79463;BME280;68931;47.286;18.756;2023-10-13T00:12:25;100835.38;;;12.77;91.97
79463;BME280;68931;47.286;18.756;2023-10-13T00:12:57;100822.97;;;12.65;91.88
79463;BME280;68931;47.286;18.756;2023-10-13T00:13:47;100872.97;;;12.94;91.93
79463;BME280;68931;47.286;18.756;2023-10-13T00:14:22;100853.63;;;12.80;92.76
79463;BME280;68931;47.286;18.756;2023-10-13T00:14:54;100864.34;;;12.92;93.09
79463;BME280;68931;47.286;18.756;2023-10-13T00:15:26;100866.41;;;12.87;92.92
79463;BME280;68931;47.286;18.756;2023-10-13T00:15:59;100832.44;;;12.68;93.04
79463;BME280;68931;47.286;18.756;2023-10-13T00:16:31;100853.63;;;12.80;92.76
79463;BME280;68931;47.286;18.756;2023-10-13T00:17:09;100868.94;;;12.88;92.61
79463;BME280;68931;47.286;18.756;2023-10-13T00:17:52;100874.03;;;12.91;92.94
79463;BME280;68931;47.286;18.756;2023-10-13T00:18:25;100866.47;;;12.85;92.97
79463;BME280;68931;47.286;18.756;2023-10-13T00:19:16;100875.31;;;12.84;93.21
79463;BME280;68931;47.286;18.756;2023-10-13T00:19:49;100862.16;;;12.84;93.22
79463;BME280;68931;47.286;18.756;2023-10-13T00:20:24;100855.41;;;12.80;93.04
79463;BME280;68931;47.286;18.756;2023-10-13T00:21:11;100864.69;;;12.86;93.54
79463;BME280;68931;47.286;18.756;2023-10-13T00:21:46;100850.59;;;12.72;93.37
79463;BME280;68931;47.286;18.756;2023-10-13T00:22:19;100858.28;;;12.75;93.30
79463;BME280;68931;47.286;18.756;2023-10-13T00:22:51;100851.38;;;12.74;93.25
79463;BME280;68931;47.286;18.756;2023-10-13T00:23:24;100878.63;;;12.88;93.35
79463;BME280;68931;47.286;18.756;2023-10-13T00:23:59;100857.56;;;12.73;93.58
79463;BME280;68931;47.286;18.756;2023-10-13T00:24:37;100867.41;;;12.84;93.14
79463;BME280;68931;47.286;18.756;2023-10-13T00:25:17;100873.53;;;12.85;93.31
79463;BME280;68931;47.286;18.756;2023-10-13T00:25:59;100877.69;;;12.89;93.25
79463;BME280;68931;47.286;18.756;2023-10-13T00:26:34;100855.56;;;12.77;93.20
79463;BME280;68931;47.286;18.756;2023-10-13T00:27:16;100861.50;;;12.80;93.36
79463;BME280;68931;47.286;18.756;2023-10-13T00:28:12;100872.34;;;12.90;93.37
79463;BME280;68931;47.286;18.756;2023-10-13T00:28:55;100867.34;;;12.86;93.60
79463;BME280;68931;47.286;18.756;2023-10-13T00:29:39;100881.09;;;12.91;93.70
79463;BME280;68931;47.286;18.756;2023-10-13T00:30:13;100879.56;;;12.87;93.67
79463;BME280;68931;47.286;18.756;2023-10-13T00:30:55;100853.41;;;12.69;93.91
79463;BME280;68931;47.286;18.756;2023-10-13T00:31:38;100870.25;;;12.81;94.08
79463;BME280;68931;47.286;18.756;2023-10-13T00:32:14;100852.47;;;12.70;94.39
79463;BME280;68931;47.286;18.756;2023-10-13T00:32:50;100851.94;;;12.65;94.18
79463;BME280;68931;47.286;18.756;2023-10-13T00:33:30;100875.63;;;12.79;94.31
79463;BME280;68931;47.286;18.756;2023-10-13T00:34:04;100856.69;;;12.59;94.44
79463;BME280;68931;47.286;18.756;2023-10-13T00:34:57;100826.78;;;12.46;94.32
79463;BME280;68931;47.286;18.756;2023-10-13T00:35:30;100869.13;;;12.71;94.49
79463;BME280;68931;47.286;18.756;2023-10-13T00:36:08;100868.28;;;12.70;94.47
79463;BME280;68931;47.286;18.756;2023-10-13T00:36:48;100865.09;;;12.65;94.88
79463;BME280;68931;47.286;18.756;2023-10-13T00:37:41;100856.97;;;12.68;94.47
79463;BME280;68931;47.286;18.756;2023-10-13T00:38:15;100863.09;;;12.69;94.18
79463;BME280;68931;47.286;18.756;2023-10-13T00:38:50;100866.41;;;12.72;94.18
79463;BME280;68931;47.286;18.756;2023-10-13T00:39:24;100849.47;;;12.62;94.37
79463;BME280;68931;47.286;18.756;2023-10-13T00:39:57;100862.16;;;12.70;94.12
79463;BME280;68931;47.286;18.756;2023-10-13T00:40:31;100858.88;;;12.66;94.33
79463;BME280;68931;47.286;18.756;2023-10-13T00:41:03;100846.28;;;12.57;94.07
79463;BME280;68931;47.286;18.756;2023-10-13T00:41:55;100867.59;;;12.67;94.13
79463;BME280;68931;47.286;18.756;2023-10-13T00:42:30;100845.50;;;12.55;94.43
79463;BME280;68931;47.286;18.756;2023-10-13T00:43:23;100871.06;;;12.67;94.29
79463;BME280;68931;47.286;18.756;2023-10-13T00:43:57;100860.75;;;12.64;94.31
79463;BME280;68931;47.286;18.756;2023-10-13T00:44:41;100855.66;;;12.61;94.30
79463;BME280;68931;47.286;18.756;2023-10-13T00:45:15;100874.47;;;12.69;93.97
79463;BME280;68931;47.286;18.756;2023-10-13T00:45:56;100852.47;;;12.56;93.56
79463;BME280;68931;47.286;18.756;2023-10-13T00:46:49;100863.84;;;12.57;94.04
79463;BME280;68931;47.286;18.756;2023-10-13T00:47:28;100879.09;;;12.66;93.62
79463;BME280;68931;47.286;18.756;2023-10-13T00:48:10;100873.16;;;12.62;93.53
79463;BME280;68931;47.286;18.756;2023-10-13T00:48:46;100849.47;;;12.48;93.35
79463;BME280;68931;47.286;18.756;2023-10-13T00:49:26;100862.31;;;12.53;93.84
79463;BME280;68931;47.286;18.756;2023-10-13T00:50:06;100871.34;;;12.49;93.99
79463;BME280;68931;47.286;18.756;2023-10-13T00:50:42;100861.84;;;12.46;93.76
79463;BME280;68931;47.286;18.756;2023-10-13T00:51:18;100862.22;;;12.40;93.33
79463;BME280;68931;47.286;18.756;2023-10-13T00:52:04;100859.00;;;12.35;93.48
79463;BME280;68931;47.286;18.756;2023-10-13T00:52:42;100863.50;;;12.33;93.50
79463;BME280;68931;47.286;18.756;2023-10-13T00:53:20;100865.03;;;12.37;93.34
79463;BME280;68931;47.286;18.756;2023-10-13T00:53:53;100842.91;;;12.25;93.45
79463;BME280;68931;47.286;18.756;2023-10-13T00:54:27;100869.34;;;12.38;92.85
79463;BME280;68931;47.286;18.756;2023-10-13T00:55:01;100871.97;;;12.38;93.23
79463;BME280;68931;47.286;18.756;2023-10-13T00:55:33;100864.19;;;12.36;93.44
79463;BME280;68931;47.286;18.756;2023-10-13T00:56:08;100843.84;;;12.24;93.80
79463;BME280;68931;47.286;18.756;2023-10-13T00:56:59;100875.09;;;12.44;93.54
79463;BME280;68931;47.286;18.756;2023-10-13T00:57:43;100860.69;;;12.36;93.36
79463;BME280;68931;47.286;18.756;2023-10-13T00:58:19;100854.88;;;12.31;93.43
79463;BME280;68931;47.286;18.756;2023-10-13T00:58:54;100873.56;;;12.40;93.77
79463;BME280;68931;47.286;18.756;2023-10-13T00:59:30;100858.16;;;12.34;94.08
79463;BME280;68931;47.286;18.756;2023-10-13T01:00:09;100822.59;;;12.13;93.86
79463;BME280;68931;47.286;18.756;2023-10-13T01:01:03;100839.72;;;12.20;93.83
79463;BME280;68931;47.286;18.756;2023-10-13T01:01:53;100868.75;;;12.33;94.01
79463;BME280;68931;47.286;18.756;2023-10-13T01:02:27;100863.59;;;12.31;93.96
79463;BME280;68931;47.286;18.756;2023-10-13T01:03:08;100857.00;;;12.24;94.16
79463;BME280;68931;47.286;18.756;2023-10-13T01:03:40;100862.94;;;12.28;94.09
79463;BME280;68931;47.286;18.756;2023-10-13T01:04:12;100858.69;;;12.25;94.06
79463;BME280;68931;47.286;18.756;2023-10-13T01:04:44;100839.22;;;12.14;94.05
79463;BME280;68931;47.286;18.756;2023-10-13T01:05:18;100822.38;;;12.02;94.42
79463;BME280;68931;47.286;18.756;2023-10-13T01:05:55;100848.25;;;12.24;94.13
79463;BME280;68931;47.286;18.756;2023-10-13T01:06:31;100870.38;;;12.35;94.50
79463;BME280;68931;47.286;18.756;2023-10-13T01:07:03;100870.47;;;12.34;93.83
79463;BME280;68931;47.286;18.756;2023-10-13T01:07:36;100851.81;;;12.23;94.06
79463;BME280;68931;47.286;18.756;2023-10-13T01:08:09;100858.31;;;12.31;93.63
79463;BME280;68931;47.286;18.756;2023-10-13T01:08:45;100838.94;;;12.18;93.67
79463;BME280;68931;47.286;18.756;2023-10-13T01:09:17;100863.59;;;12.31;93.54
79463;BME280;68931;47.286;18.756;2023-10-13T01:09:49;100852.78;;;12.22;93.73
79463;BME280;68931;47.286;18.756;2023-10-13T01:10:22;100862.16;;;12.26;94.06
79463;BME280;68931;47.286;18.756;2023-10-13T01:10:59;100837.78;;;12.08;94.09
79463;BME280;68931;47.286;18.756;2023-10-13T01:11:31;100844.56;;;12.12;94.03
79463;BME280;68931;47.286;18.756;2023-10-13T01:12:03;100848.91;;;12.13;94.05
79463;BME280;68931;47.286;18.756;2023-10-13T01:12:35;100856.25;;;12.22;94.35
79463;BME280;68931;47.286;18.756;2023-10-13T01:13:07;100843.44;;;12.16;94.08
79463;BME280;68931;47.286;18.756;2023-10-13T01:13:41;100852.00;;;12.20;94.01
79463;BME280;68931;47.286;18.756;2023-10-13T01:14:14;100869.13;;;12.27;94.00
79463;BME280;68931;47.286;18.756;2023-10-13T01:14:50;100841.00;;;12.13;94.13
79463;BME280;68931;47.286;18.756;2023-10-13T01:15:22;100863.78;;;12.28;94.52
79463;BME280;68931;47.286;18.756;2023-10-13T01:16:04;100850.72;;;12.27;94.34
79463;BME280;68931;47.286;18.756;2023-10-13T01:16:39;100844.97;;;12.20;94.13
79463;BME280;68931;47.286;18.756;2023-10-13T01:17:17;100859.28;;;12.30;93.96
79463;BME280;68931;47.286;18.756;2023-10-13T01:17:50;100838.25;;;12.15;94.49
79463;BME280;68931;47.286;18.756;2023-10-13T01:18:22;100848.38;;;12.22;94.70
79463;BME280;68931;47.286;18.756;2023-10-13T01:18:54;100841.56;;;12.18;94.50
79463;BME280;68931;47.286;18.756;2023-10-13T01:19:38;100847.53;;;12.22;94.14
79463;BME280;68931;47.286;18.756;2023-10-13T01:20:21;100835.84;;;12.12;94.45
79463;BME280;68931;47.286;18.756;2023-10-13T01:20:59;100848.25;;;12.24;94.75
79463;BME280;68931;47.286;18.756;2023-10-13T01:21:33;100852.00;;;12.20;94.32
79463;BME280;68931;47.286;18.756;2023-10-13T01:22:08;100828.28;;;12.05;94.40
79463;BME280;68931;47.286;18.756;2023-10-13T01:22:41;100855.41;;;12.22;94.33
79463;BME280;68931;47.286;18.756;2023-10-13T01:23:13;100824.00;;;12.04;94.23
79463;BME280;68931;47.286;18.756;2023-10-13T01:23:50;100834.78;;;12.14;94.53
79463;BME280;68931;47.286;18.756;2023-10-13T01:24:25;100854.09;;;12.29;94.35
79463;BME280;68931;47.286;18.756;2023-10-13T01:25:00;100843.84;;;12.24;94.53
79463;BME280;68931;47.286;18.756;2023-10-13T01:25:50;100834.53;;;12.19;94.38
79463;BME280;68931;47.286;18.756;2023-10-13T01:26:22;100853.06;;;12.31;94.33
79463;BME280;68931;47.286;18.756;2023-10-13T01:26:58;100848.00;;;12.28;94.35
79463;BME280;68931;47.286;18.756;2023-10-13T01:27:41;100844.78;;;12.23;94.18
79463;BME280;68931;47.286;18.756;2023-10-13T01:28:13;100833.13;;;12.13;94.16
79463;BME280;68931;47.286;18.756;2023-10-13T01:28:52;100826.34;;;12.09;94.17
79463;BME280;68931;47.286;18.756;2023-10-13T01:29:28;100836.78;;;12.11;94.29
79463;BME280;68931;47.286;18.756;2023-10-13T01:30:01;100824.91;;;12.03;93.75
79463;BME280;68931;47.286;18.756;2023-10-13T01:30:45;100849.47;;;12.18;94.10
79463;BME280;68931;47.286;18.756;2023-10-13T01:31:21;100850.56;;;12.14;94.13
79463;BME280;68931;47.286;18.756;2023-10-13T01:31:59;100856.34;;;12.21;93.98
79463;BME280;68931;47.286;18.756;2023-10-13T01:32:33;100853.72;;;12.21;94.03
79463;BME280;68931;47.286;18.756;2023-10-13T01:33:06;100858.69;;;12.25;93.92
79463;BME280;68931;47.286;18.756;2023-10-13T01:33:40;100855.97;;;12.27;94.15
79463;BME280;68931;47.286;18.756;2023-10-13T01:34:16;100835.84;;;12.12;94.32
79463;BME280;68931;47.286;18.756;2023-10-13T01:34:53;100848.94;;;12.27;94.25
79463;BME280;68931;47.286;18.756;2023-10-13T01:35:37;100850.72;;;12.27;94.35
79463;BME280;68931;47.286;18.756;2023-10-13T01:36:30;100832.75;;;12.19;94.51
79463;BME280;68931;47.286;18.756;2023-10-13T01:37:07;100823.44;;;12.14;94.34
79463;BME280;68931;47.286;18.756;2023-10-13T01:37:42;100824.19;;;12.16;94.22
79463;BME280;68931;47.286;18.756;2023-10-13T01:38:14;100833.84;;;12.15;94.39
79463;BME280;68931;47.286;18.756;2023-10-13T01:38:47;100851.94;;;12.21;94.71
79463;BME280;68931;47.286;18.756;2023-10-13T01:39:19;100853.25;;;12.28;94.63
79463;BME280;68931;47.286;18.756;2023-10-13T01:39:52;100844.59;;;12.26;94.72
79463;BME280;68931;47.286;18.756;2023-10-13T01:40:24;100843.66;;;12.27;94.42
79463;BME280;68931;47.286;18.756;2023-10-13T01:41:06;100852.03;;;12.34;94.73
79463;BME280;68931;47.286;18.756;2023-10-13T01:41:40;100829.19;;;12.20;94.54
79463;BME280;68931;47.286;18.756;2023-10-13T01:42:16;100849.59;;;12.31;94.21
79463;BME280;68931;47.286;18.756;2023-10-13T01:42:53;100824.19;;;12.16;94.29
79463;BME280;68931;47.286;18.756;2023-10-13T01:43:27;100820.81;;;12.14;94.16
79463;BME280;68931;47.286;18.756;2023-10-13T01:43:59;100814.03;;;12.10;94.05
79463;BME280;68931;47.286;18.756;2023-10-13T01:44:31;100832.59;;;12.22;94.23
79463;BME280;68931;47.286;18.756;2023-10-13T01:45:04;100838.31;;;12.29;94.53
79463;BME280;68931;47.286;18.756;2023-10-13T01:45:45;100815.56;;;12.14;94.55
79463;BME280;68931;47.286;18.756;2023-10-13T01:46:21;100821.56;;;12.16;94.89
79463;BME280;68931;47.286;18.756;2023-10-13T01:46:53;100825.63;;;12.21;94.35
79463;BME280;68931;47.286;18.756;2023-10-13T01:47:25;100828.06;;;12.24;94.73
79463;BME280;68931;47.286;18.756;2023-10-13T01:47:59;100836.63;;;12.28;94.27
79463;BME280;68931;47.286;18.756;2023-10-13T01:48:33;100822.88;;;12.23;94.93
79463;BME280;68931;47.286;18.756;2023-10-13T01:49:10;100809.34;;;12.15;94.41
79463;BME280;68931;47.286;18.756;2023-10-13T01:49:43;100808.41;;;12.16;94.23
79463;BME280;68931;47.286;18.756;2023-10-13T01:50:19;100827.81;;;12.29;94.52
79463;BME280;68931;47.286;18.756;2023-10-13T01:50:59;100806.28;;;12.22;94.03
79463;BME280;68931;47.286;18.756;2023-10-13T01:51:34;100808.06;;;12.22;94.13
79463;BME280;68931;47.286;18.756;2023-10-13T01:52:10;100810.00;;;12.18;94.00
79463;BME280;68931;47.286;18.756;2023-10-13T01:52:47;100824.50;;;12.25;94.34
79463;BME280;68931;47.286;18.756;2023-10-13T01:53:19;100843.38;;;12.32;94.39
79463;BME280;68931;47.286;18.756;2023-10-13T01:53:51;100828.25;;;12.21;94.12
79463;BME280;68931;47.286;18.756;2023-10-13T01:54:29;100848.66;;;12.32;94.05
79463;BME280;68931;47.286;18.756;2023-10-13T01:55:01;100845.16;;;12.31;94.21
79463;BME280;68931;47.286;18.756;2023-10-13T01:55:34;100861.53;;;12.36;94.09
79463;BME280;68931;47.286;18.756;2023-10-13T01:56:14;100861.72;;;12.33;93.81
79463;BME280;68931;47.286;18.756;2023-10-13T01:56:46;100865.03;;;12.37;93.99
79463;BME280;68931;47.286;18.756;2023-10-13T01:57:23;100860.63;;;12.37;94.12
79463;BME280;68931;47.286;18.756;2023-10-13T01:57:58;100842.13;;;12.23;94.16
79463;BME280;68931;47.286;18.756;2023-10-13T01:58:30;100863.31;;;12.36;93.96
79463;BME280;68931;47.286;18.756;2023-10-13T01:59:02;100822.69;;;12.12;93.96
79463;BME280;68931;47.286;18.756;2023-10-13T01:59:34;100848.63;;;12.18;93.65
79463;BME280;68931;47.286;18.756;2023-10-13T02:00:18;100841.75;;;12.15;94.01
79463;BME280;68931;47.286;18.756;2023-10-13T02:00:50;100866.13;;;12.33;93.84
79463;BME280;68931;47.286;18.756;2023-10-13T02:01:24;100866.13;;;12.33;94.24
79463;BME280;68931;47.286;18.756;2023-10-13T02:01:59;100850.88;;;12.24;94.02
79463;BME280;68931;47.286;18.756;2023-10-13T02:02:33;100862.16;;;12.26;93.95
79463;BME280;68931;47.286;18.756;2023-10-13T02:03:05;100880.91;;;12.35;94.00
79463;BME280;68931;47.286;18.756;2023-10-13T02:03:39;100878.34;;;12.34;93.76
79463;BME280;68931;47.286;18.756;2023-10-13T02:04:18;100880.03;;;12.35;93.86
79463;BME280;68931;47.286;18.756;2023-10-13T02:04:53;100863.69;;;12.30;93.54
79463;BME280;68931;47.286;18.756;2023-10-13T02:05:29;100868.75;;;12.33;93.35
79463;BME280;68931;47.286;18.756;2023-10-13T02:06:07;100860.88;;;12.33;93.42
79463;BME280;68931;47.286;18.756;2023-10-13T02:06:44;100845.75;;;12.22;93.56
79463;BME280;68931;47.286;18.756;2023-10-13T02:07:22;100861.41;;;12.24;93.82
79463;BME280;68931;47.286;18.756;2023-10-13T02:07:58;100863.78;;;12.28;93.58
79463;BME280;68931;47.286;18.756;2023-10-13T02:08:39;100846.00;;;12.18;93.70
79463;BME280;68931;47.286;18.756;2023-10-13T02:09:18;100848.25;;;12.24;93.70
79463;BME280;68931;47.286;18.756;2023-10-13T02:10:00;100847.53;;;12.22;93.78
79463;BME280;68931;47.286;18.756;2023-10-13T02:10:38;100871.38;;;12.33;94.04
79463;BME280;68931;47.286;18.756;2023-10-13T02:11:14;100875.72;;;12.34;94.05
79463;BME280;68931;47.286;18.756;2023-10-13T02:11:50;100870.47;;;12.34;94.05
79463;BME280;68931;47.286;18.756;2023-10-13T02:12:26;100882.50;;;12.38;94.21
79463;BME280;68931;47.286;18.756;2023-10-13T02:13:07;100879.88;;;12.38;93.70
79463;BME280;68931;47.286;18.756;2023-10-13T02:13:49;100857.19;;;12.21;93.39
79463;BME280;68931;47.286;18.756;2023-10-13T02:14:25;100854.66;;;12.20;93.19
79463;BME280;68931;47.286;18.756;2023-10-13T02:14:57;100849.47;;;12.18;94.14
79463;BME280;68931;47.286;18.756;2023-10-13T02:15:35;100845.50;;;12.11;94.24
79463;BME280;68931;47.286;18.756;2023-10-13T02:16:08;100861.53;;;12.22;94.17
79463;BME280;68931;47.286;18.756;2023-10-13T02:16:43;100852.94;;;12.19;94.28
79463;BME280;68931;47.286;18.756;2023-10-13T02:17:19;100875.16;;;12.29;94.64
79463;BME280;68931;47.286;18.756;2023-10-13T02:17:55;100876.66;;;12.33;94.41
79463;BME280;68931;47.286;18.756;2023-10-13T02:18:27;100875.91;;;12.31;94.68
79463;BME280;68931;47.286;18.756;2023-10-13T02:18:59;100874.78;;;12.35;94.94
79463;BME280;68931;47.286;18.756;2023-10-13T02:19:37;100878.25;;;12.35;94.88
79463;BME280;68931;47.286;18.756;2023-10-13T02:20:11;100851.16;;;12.19;94.88
79463;BME280;68931;47.286;18.756;2023-10-13T02:20:47;100868.03;;;12.31;95.09
79463;BME280;68931;47.286;18.756;2023-10-13T02:21:26;100868.84;;;12.31;95.01
79463;BME280;68931;47.286;18.756;2023-10-13T02:22:03;100870.53;;;12.32;95.29
79463;BME280;68931;47.286;18.756;2023-10-13T02:22:35;100872.25;;;12.33;95.37
79463;BME280;68931;47.286;18.756;2023-10-13T02:23:12;100827.09;;;12.11;95.59
79463;BME280;68931;47.286;18.756;2023-10-13T02:23:45;100854.75;;;12.32;95.47
79463;BME280;68931;47.286;18.756;2023-10-13T02:24:18;100865.66;;;12.40;95.36
79463;BME280;68931;47.286;18.756;2023-10-13T02:24:50;100833.97;;;12.14;95.09
79463;BME280;68931;47.286;18.756;2023-10-13T02:25:27;100879.50;;;12.44;95.39
79463;BME280;68931;47.286;18.756;2023-10-13T02:26:14;100874.34;;;12.42;95.34
79463;BME280;68931;47.286;18.756;2023-10-13T02:26:47;100854.09;;;12.29;94.92
79463;BME280;68931;47.286;18.756;2023-10-13T02:27:20;100851.19;;;12.33;94.76
79463;BME280;68931;47.286;18.756;2023-10-13T02:27:57;100860.53;;;12.39;95.08
79463;BME280;68931;47.286;18.756;2023-10-13T02:28:30;100864.09;;;12.38;94.95
79463;BME280;68931;47.286;18.756;2023-10-13T02:29:05;100852.03;;;12.34;95.21
79463;BME280;68931;47.286;18.756;2023-10-13T02:29:41;100859.69;;;12.38;95.20
79463;BME280;68931;47.286;18.756;2023-10-13T02:30:13;100866.63;;;12.39;94.99
79463;BME280;68931;47.286;18.756;2023-10-13T02:30:48;100838.50;;;12.26;95.14
79463;BME280;68931;47.286;18.756;2023-10-13T02:31:22;100847.06;;;12.29;95.35
79463;BME280;68931;47.286;18.756;2023-10-13T02:31:56;100821.63;;;12.14;95.60
79463;BME280;68931;47.286;18.756;2023-10-13T02:32:32;100844.59;;;12.26;95.75
79463;BME280;68931;47.286;18.756;2023-10-13T02:33:05;100833.59;;;12.20;95.27
79463;BME280;68931;47.286;18.756;2023-10-13T02:33:38;100853.91;;;12.32;95.57
79463;BME280;68931;47.286;18.756;2023-10-13T02:34:17;100852.25;;;12.31;95.47
79463;BME280;68931;47.286;18.756;2023-10-13T02:34:50;100836.47;;;12.15;95.68
79463;BME280;68931;47.286;18.756;2023-10-13T02:35:22;100841.56;;;12.18;95.84
79463;BME280;68931;47.286;18.756;2023-10-13T02:36:03;100834.53;;;12.19;95.53
79463;BME280;68931;47.286;18.756;2023-10-13T02:36:38;100857.66;;;12.28;95.51
79463;BME280;68931;47.286;18.756;2023-10-13T02:37:20;100853.19;;;12.30;95.47
79463;BME280;68931;47.286;18.756;2023-10-13T02:37:52;100863.25;;;12.37;95.61
79463;BME280;68931;47.286;18.756;2023-10-13T02:38:27;100860.00;;;12.32;95.51
79463;BME280;68931;47.286;18.756;2023-10-13T02:39:06;100889.00;;;12.47;95.75
79463;BME280;68931;47.286;18.756;2023-10-13T02:39:41;100881.97;;;12.47;95.55
79463;BME280;68931;47.286;18.756;2023-10-13T02:40:13;100859.00;;;12.35;95.45
79463;BME280;68931;47.286;18.756;2023-10-13T02:40:49;100841.03;;;12.27;95.83
79463;BME280;68931;47.286;18.756;2023-10-13T02:41:21;100875.47;;;12.53;95.57
79463;BME280;68931;47.286;18.756;2023-10-13T02:41:59;100872.19;;;12.49;95.55
79463;BME280;68931;47.286;18.756;2023-10-13T02:42:31;100874.72;;;12.51;95.94
79463;BME280;68931;47.286;18.756;2023-10-13T02:43:04;100864.41;;;12.48;95.46
79463;BME280;68931;47.286;18.756;2023-10-13T02:43:39;100855.56;;;12.49;95.81
79463;BME280;68931;47.286;18.756;2023-10-13T02:44:22;100872.69;;;12.56;96.30
79463;BME280;68931;47.286;18.756;2023-10-13T02:45:04;100820.66;;;12.31;95.99
79463;BME280;68931;47.286;18.756;2023-10-13T02:45:37;100857.53;;;12.45;96.12
79463;BME280;68931;47.286;18.756;2023-10-13T02:46:09;100860.84;;;12.49;96.39
79463;BME280;68931;47.286;18.756;2023-10-13T02:46:41;100853.66;;;12.51;96.44
79463;BME280;68931;47.286;18.756;2023-10-13T02:47:14;100850.31;;;12.49;96.48
79463;BME280;68931;47.286;18.756;2023-10-13T02:47:47;100842.75;;;12.42;96.68
79463;BME280;68931;47.286;18.756;2023-10-13T02:48:38;100832.44;;;12.39;96.79
79463;BME280;68931;47.286;18.756;2023-10-13T02:49:17;100824.63;;;12.38;97.25
79463;BME280;68931;47.286;18.756;2023-10-13T02:49:51;100850.19;;;12.50;96.90
79463;BME280;68931;47.286;18.756;2023-10-13T02:50:23;100838.34;;;12.43;97.38
79463;BME280;68931;47.286;18.756;2023-10-13T02:50:59;100851.88;;;12.51;97.18
79463;BME280;68931;47.286;18.756;2023-10-13T02:51:38;100839.47;;;12.39;97.20
79463;BME280;68931;47.286;18.756;2023-10-13T02:52:14;100853.50;;;12.54;97.21
79463;BME280;68931;47.286;18.756;2023-10-13T02:52:46;100837.56;;;12.41;96.83
79463;BME280;68931;47.286;18.756;2023-10-13T02:53:21;100828.94;;;12.39;96.85
79463;BME280;68931;47.286;18.756;2023-10-13T02:53:53;100828.09;;;12.38;96.74
79463;BME280;68931;47.286;18.756;2023-10-13T02:54:26;100822.00;;;12.38;97.04
79463;BME280;68931;47.286;18.756;2023-10-13T02:55:03;100868.56;;;12.66;96.84
79463;BME280;68931;47.286;18.756;2023-10-13T02:55:53;100870.34;;;12.65;96.85
79463;BME280;68931;47.286;18.756;2023-10-13T02:56:27;100869.41;;;12.66;96.93
79463;BME280;68931;47.286;18.756;2023-10-13T02:56:59;100861.50;;;12.66;96.80
79463;BME280;68931;47.286;18.756;2023-10-13T02:57:36;100866.41;;;12.72;96.77
79463;BME280;68931;47.286;18.756;2023-10-13T02:58:08;100826.72;;;12.47;96.76
79463;BME280;68931;47.286;18.756;2023-10-13T02:58:41;100851.06;;;12.65;96.61
79463;BME280;68931;47.286;18.756;2023-10-13T02:59:20;100852.84;;;12.64;96.51
79463;BME280;68931;47.286;18.756;2023-10-13T03:00:06;100841.00;;;12.57;96.61
79463;BME280;68931;47.286;18.756;2023-10-13T03:00:45;100864.69;;;12.71;96.92
79463;BME280;68931;47.286;18.756;2023-10-13T03:01:20;100863.84;;;12.71;97.24
79463;BME280;68931;47.286;18.756;2023-10-13T03:01:54;100854.34;;;12.68;97.05
79463;BME280;68931;47.286;18.756;2023-10-13T03:02:27;100817.03;;;12.48;96.79
79463;BME280;68931;47.286;18.756;2023-10-13T03:03:01;100863.56;;;12.75;97.00
79463;BME280;68931;47.286;18.756;2023-10-13T03:03:33;100863.31;;;12.80;97.11
79463;BME280;68931;47.286;18.756;2023-10-13T03:04:06;100850.69;;;12.71;97.16
79463;BME280;68931;47.286;18.756;2023-10-13T03:04:40;100844.88;;;12.66;96.63
79463;BME280;68931;47.286;18.756;2023-10-13T03:05:20;100885.59;;;12.89;96.58
79463;BME280;68931;47.286;18.756;2023-10-13T03:06:02;100867.25;;;12.73;96.77
79463;BME280;68931;47.286;18.756;2023-10-13T03:06:35;100883.34;;;12.82;96.32
79463;BME280;68931;47.286;18.756;2023-10-13T03:07:07;100880.03;;;12.79;96.35
79463;BME280;68931;47.286;18.756;2023-10-13T03:07:40;100895.44;;;12.85;96.37